Time;durP1;ratioP1;P1;durP2;ratioP2;P2;SDS_P1;SDS_P2;PMS_P1;PMS_P2;Temp;Humidity;BMP_temperature;BMP_pressure;BME280_temperature;BME280_humidity;BME280_pressure;Samples;Min_cycle;Max_cycle;Signal;HPM_P1;HPM_P2
2021/11/30 00:01:57;;;;;;;0.00;0.00;;;0.80;99.90;;;;;;5051792;28;20032;-78
2021/11/30 00:04:28;;;;;;;1.00;0.52;;;0.80;99.90;;;;;;5055807;28;20029;-77
2021/11/30 00:06:54;;;;;;;1.55;1.45;;;0.80;99.90;;;;;;5056250;28;20025;-77
2021/11/30 00:11:48;;;;;;;13.05;1.15;;;0.60;99.90;;;;;;5055970;28;20017;-77
2021/11/30 00:14:14;;;;;;;0.68;0.65;;;0.60;99.90;;;;;;5055719;28;20399;-78
2021/11/30 00:16:40;;;;;;;1.55;0.68;;;0.70;99.90;;;;;;5055828;28;20017;-78
2021/11/30 00:19:06;;;;;;;0.00;0.00;;;0.70;99.90;;;;;;5055367;28;20055;-77
2021/11/30 00:21:31;;;;;;;0.98;0.80;;;0.60;99.90;;;;;;5055644;28;20143;-78
2021/11/30 00:23:57;;;;;;;1.52;1.38;;;0.70;99.90;;;;;;5055160;28;20443;-78
2021/11/30 00:26:22;;;;;;;1.60;1.50;;;0.70;99.90;;;;;;5055350;28;20047;-77
2021/11/30 00:28:48;;;;;;;0.28;0.28;;;0.60;99.90;;;;;;5055625;28;20025;-78
2021/11/30 00:31:14;;;;;;;5.18;2.05;;;0.70;99.90;;;;;;5055598;28;20557;-78
2021/11/30 00:33:40;;;;;;;0.28;0.28;;;0.60;99.90;;;;;;5054727;28;20028;-78
2021/11/30 00:36:05;;;;;;;0.45;0.32;;;0.70;99.90;;;;;;5055714;28;20052;-78
2021/11/30 00:38:31;;;;;;;0.60;0.60;;;0.60;99.90;;;;;;5055641;28;20025;-78
2021/11/30 00:40:57;;;;;;;0.10;0.10;;;0.60;99.90;;;;;;5056024;28;20037;-78
2021/11/30 00:43:26;;;;;;;3.33;0.63;;;0.60;99.90;;;;;;5055376;28;20031;-77
2021/11/30 00:45:57;;;;;;;0.22;0.22;;;0.60;99.90;;;;;;5055443;28;20025;-78
2021/11/30 00:48:30;;;;;;;1.55;1.38;;;0.50;99.90;;;;;;5055203;28;20519;-77
2021/11/30 00:51:02;;;;;;;0.73;0.73;;;0.50;99.90;;;;;;5055347;28;20025;-79
2021/11/30 00:53:28;;;;;;;0.20;0.20;;;0.50;99.90;;;;;;5053840;28;20056;-78
2021/11/30 00:55:54;;;;;;;5.93;1.27;;;0.50;99.90;;;;;;5055591;28;20021;-78
2021/11/30 00:58:19;;;;;;;0.57;0.57;;;0.70;99.90;;;;;;5054030;28;20021;-78
2021/11/30 01:00:45;;;;;;;1.98;1.38;;;0.70;99.90;;;;;;5054961;28;20036;-78
2021/11/30 01:03:11;;;;;;;2.25;1.38;;;0.70;99.90;;;;;;5054595;28;20396;-77
2021/11/30 01:05:37;;;;;;;1.48;1.38;;;0.70;99.90;;;;;;5054858;28;20513;-78
2021/11/30 01:08:04;;;;;;;2.30;1.55;;;0.60;99.90;;;;;;5054784;28;20041;-77
2021/11/30 01:10:35;;;;;;;1.17;1.08;;;0.60;99.90;;;;;;5053807;28;20511;-77
2021/11/30 01:13:02;;;;;;;1.00;0.32;;;0.60;99.90;;;;;;5054420;28;20025;-78
2021/11/30 01:15:28;;;;;;;1.00;0.82;;;0.50;99.90;;;;;;5054691;28;20438;-78
2021/11/30 01:17:56;;;;;;;28.83;2.33;;;0.50;99.90;;;;;;5054437;28;20033;-77
2021/11/30 01:20:22;;;;;;;1.48;1.35;;;0.60;99.90;;;;;;5054362;28;20519;-78
2021/11/30 01:22:48;;;;;;;0.00;0.00;;;0.60;99.90;;;;;;5053554;28;20060;-78
2021/11/30 01:25:14;;;;;;;1.20;0.77;;;0.50;99.90;;;;;;5054534;28;20107;-77
2021/11/30 01:27:40;;;;;;;0.00;0.00;;;0.60;99.90;;;;;;5054840;28;20040;-78
2021/11/30 01:30:08;;;;;;;0.28;0.28;;;0.60;99.90;;;;;;5054680;28;20025;-78
2021/11/30 01:32:34;;;;;;;0.15;0.15;;;0.50;99.90;;;;;;5054567;28;20056;-77
2021/11/30 01:35:00;;;;;;;0.28;0.28;;;0.50;99.90;;;;;;5054269;28;20023;-77
2021/11/30 01:37:26;;;;;;;1.17;0.98;;;0.60;99.90;;;;;;5054384;28;20100;-78
2021/11/30 01:39:52;;;;;;;0.00;0.00;;;0.50;99.90;;;;;;5054604;28;20487;-77
2021/11/30 01:42:18;;;;;;;0.00;0.00;;;0.60;99.90;;;;;;5054532;28;20064;-78
2021/11/30 01:44:49;;;;;;;2.10;1.02;;;0.60;99.90;;;;;;5053994;28;20106;-77
2021/11/30 01:49:58;;;;;;;0.32;0.32;;;0.70;99.90;;;;;;5053954;28;20514;-78
2021/11/30 01:52:24;;;;;;;0.00;0.00;;;0.70;99.90;;;;;;5053954;28;20057;-77
2021/11/30 01:54:51;;;;;;;0.15;0.15;;;0.70;99.90;;;;;;5053146;28;20063;-78
2021/11/30 01:57:20;;;;;;;0.15;0.15;;;0.80;99.90;;;;;;5053788;28;20025;-77
2021/11/30 01:59:47;;;;;;;0.52;0.52;;;0.70;99.90;;;;;;5053319;28;20049;-77
2021/11/30 02:02:13;;;;;;;0.52;0.52;;;0.70;99.90;;;;;;5053891;28;20098;-77
2021/11/30 02:04:40;;;;;;;0.60;0.47;;;0.70;99.90;;;;;;5053715;28;20021;-78
2021/11/30 02:07:07;;;;;;;0.40;0.40;;;0.70;99.90;;;;;;5054177;28;20068;-78
2021/11/30 02:09:34;;;;;;;0.10;0.10;;;0.70;99.90;;;;;;5054354;28;20021;-78
2021/11/30 02:12:00;;;;;;;0.68;0.63;;;0.70;99.90;;;;;;5052410;28;20032;-77
2021/11/30 02:14:25;;;;;;;1.08;1.02;;;0.70;99.90;;;;;;5051986;28;20036;-77
2021/11/30 02:16:51;;;;;;;0.30;0.30;;;0.60;99.90;;;;;;5053650;28;20079;-78
2021/11/30 02:19:18;;;;;;;0.50;0.32;;;0.60;99.90;;;;;;5053395;28;20024;-77
2021/11/30 02:21:44;;;;;;;0.73;0.73;;;0.60;99.90;;;;;;5053384;28;20028;-78
2021/11/30 02:24:10;;;;;;;0.10;0.10;;;0.50;99.90;;;;;;5052327;28;20480;-78
2021/11/30 02:26:38;;;;;;;0.70;0.63;;;0.50;99.90;;;;;;5052495;28;20408;-78
2021/11/30 02:29:05;;;;;;;1.95;0.35;;;0.50;99.90;;;;;;5052070;28;20033;-77
2021/11/30 02:31:48;;;;;;;1.25;1.02;;;0.50;99.90;;;;;;5053298;28;20017;-78
2021/11/30 02:34:16;;;;;;;0.40;0.40;;;0.50;99.90;;;;;;5053047;28;20090;-77
2021/11/30 02:39:15;;;;;;;0.22;0.22;;;0.40;99.90;;;;;;5053178;28;20025;-78
2021/11/30 02:41:42;;;;;;;1.10;1.05;;;0.40;99.90;;;;;;5052073;28;20104;-77
2021/11/30 02:44:10;;;;;;;0.10;0.10;;;0.40;99.90;;;;;;5053253;28;20024;-78
2021/11/30 02:46:39;;;;;;;0.15;0.15;;;0.40;99.90;;;;;;5053308;28;20626;-77
2021/11/30 02:49:09;;;;;;;0.13;0.13;;;0.50;99.90;;;;;;5051382;28;20036;-78
2021/11/30 02:51:36;;;;;;;0.00;0.00;;;0.50;99.90;;;;;;5052997;28;20507;-78
2021/11/30 02:54:08;;;;;;;0.65;0.22;;;0.50;99.90;;;;;;5053013;28;20025;-77
2021/11/30 02:57:05;;;;;;;1.25;1.15;;;0.40;99.90;;;;;;5053126;28;20557;-77
2021/11/30 02:59:34;;;;;;;0.10;0.10;;;0.40;99.90;;;;;;5044177;28;20514;-78
2021/11/30 03:02:11;;;;;;;0.73;0.30;;;0.40;99.90;;;;;;5052653;28;20029;-77
2021/11/30 03:04:37;;;;;;;1.95;1.65;;;0.40;99.90;;;;;;5052589;28;20108;-77
2021/11/30 03:07:03;;;;;;;0.17;0.17;;;0.40;99.90;;;;;;5053019;28;20112;-77
2021/11/30 03:09:29;;;;;;;4.22;1.17;;;0.40;99.90;;;;;;5052667;28;20029;-77
2021/11/30 03:11:56;;;;;;;0.90;0.90;;;0.40;99.90;;;;;;5052575;28;20032;-77
2021/11/30 03:14:24;;;;;;;0.20;0.20;;;0.40;99.90;;;;;;5052745;28;20139;-77
2021/11/30 03:16:50;;;;;;;0.03;0.03;;;0.50;99.90;;;;;;5052630;28;20020;-78
2021/11/30 03:19:17;;;;;;;0.10;0.10;;;0.50;99.90;;;;;;5052127;28;20531;-77
2021/11/30 03:21:43;;;;;;;0.13;0.05;;;0.50;99.90;;;;;;5053234;28;20033;-78
2021/11/30 03:24:09;;;;;;;5.93;0.57;;;0.50;99.90;;;;;;5050586;28;20025;-77
2021/11/30 03:26:35;;;;;;;4.38;1.55;;;0.50;99.90;;;;;;5052569;28;20071;-77
2021/11/30 03:29:01;;;;;;;0.22;0.22;;;0.50;99.90;;;;;;5050842;28;20017;-78
2021/11/30 03:31:46;;;;;;;0.00;0.00;;;0.50;99.90;;;;;;5053007;28;20078;-78
2021/11/30 03:34:20;;;;;;;0.52;0.52;;;0.50;99.90;;;;;;5052560;28;20482;-77
2021/11/30 03:36:49;;;;;;;1.70;0.30;;;0.60;99.90;;;;;;5052740;28;20021;-77
2021/11/30 03:39:18;;;;;;;0.88;0.38;;;0.60;99.90;;;;;;5057089;28;20492;-77
2021/11/30 03:41:47;;;;;;;0.20;0.20;;;0.60;99.90;;;;;;5056557;28;20488;-77
2021/11/30 03:44:16;;;;;;;0.28;0.28;;;0.50;99.90;;;;;;5055625;28;20442;-78
2021/11/30 03:46:41;;;;;;;0.57;0.57;;;0.60;99.90;;;;;;5056245;28;20025;-77
2021/11/30 03:49:09;;;;;;;0.25;0.25;;;0.50;99.90;;;;;;5055855;28;20471;-77
2021/11/30 03:51:36;;;;;;;0.93;0.93;;;0.50;99.90;;;;;;5056045;28;20076;-77
2021/11/30 03:54:02;;;;;;;0.00;0.00;;;0.50;99.90;;;;;;5055926;28;20059;-78
2021/11/30 03:56:27;;;;;;;0.45;0.45;;;0.40;99.90;;;;;;5056005;28;20021;-77
2021/11/30 03:58:54;;;;;;;1.00;0.98;;;0.40;99.90;;;;;;5055765;28;20036;-77
2021/11/30 04:01:20;;;;;;;0.00;0.00;;;0.40;99.90;;;;;;5055591;28;20061;-78
2021/11/30 04:03:46;;;;;;;0.00;0.00;;;0.30;99.90;;;;;;5054208;28;20021;-77
2021/11/30 04:06:12;;;;;;;2.35;1.02;;;0.30;99.90;;;;;;5056236;28;20033;-77
2021/11/30 04:08:39;;;;;;;0.13;0.13;;;0.30;99.90;;;;;;5055757;28;20025;-77
2021/11/30 04:11:05;;;;;;;0.25;0.25;;;0.30;99.90;;;;;;5054519;28;20035;-77
2021/11/30 04:13:31;;;;;;;0.43;0.32;;;0.30;99.90;;;;;;5056114;28;20021;-78
2021/11/30 04:15:57;;;;;;;0.68;0.60;;;0.30;99.90;;;;;;5055997;28;20039;-78
2021/11/30 04:18:24;;;;;;;7.10;1.75;;;0.30;99.90;;;;;;5055694;28;20052;-78
2021/11/30 04:20:50;;;;;;;0.00;0.00;;;0.20;99.90;;;;;;5055998;28;20075;-78
2021/11/30 04:23:15;;;;;;;1.88;1.77;;;0.20;99.90;;;;;;5055763;28;20037;-77
2021/11/30 04:25:41;;;;;;;0.70;0.70;;;0.20;99.90;;;;;;5054533;28;20056;-78
2021/11/30 04:28:07;;;;;;;7.20;1.90;;;0.10;99.90;;;;;;5055445;28;20033;-77
2021/11/30 04:30:32;;;;;;;0.20;0.20;;;0.10;99.90;;;;;;5055362;28;20036;-77
2021/11/30 04:32:58;;;;;;;12.95;2.67;;;0.10;99.90;;;;;;5055749;28;20028;-77
2021/11/30 04:35:25;;;;;;;2.17;2.03;;;0.10;99.90;;;;;;5055854;28;20100;-78
2021/11/30 04:37:51;;;;;;;6.10;2.55;;;0.10;99.90;;;;;;5055571;28;20021;-77
2021/11/30 04:40:16;;;;;;;0.75;0.75;;;0.10;99.90;;;;;;5055476;28;20033;-77
2021/11/30 04:42:45;;;;;;;0.75;0.75;;;0.10;99.90;;;;;;5055647;28;20039;-77
2021/11/30 04:45:25;;;;;;;0.43;0.43;;;0.10;99.90;;;;;;5055368;28;20049;-77
2021/11/30 04:47:54;;;;;;;2.08;1.98;;;0.10;99.90;;;;;;5054216;28;20021;-77
2021/11/30 04:50:24;;;;;;;0.43;0.43;;;0.10;99.90;;;;;;5055232;28;20032;-78
2021/11/30 04:52:50;;;;;;;1.98;1.58;;;0.20;99.90;;;;;;5055263;28;20545;-77
2021/11/30 04:55:27;;;;;;;3.95;1.20;;;0.20;99.90;;;;;;5055280;28;20407;-77
2021/11/30 04:57:55;;;;;;;3.15;1.27;;;0.30;99.90;;;;;;5054977;28;20009;-77
2021/11/30 05:00:22;;;;;;;0.50;0.50;;;0.30;99.90;;;;;;5053339;28;20033;-78
2021/11/30 05:02:49;;;;;;;1.27;0.50;;;0.30;99.90;;;;;;5054357;28;20023;-77
2021/11/30 05:05:15;;;;;;;1.55;1.27;;;0.30;99.90;;;;;;5055146;28;20039;-79
2021/11/30 05:07:44;;;;;;;0.38;0.38;;;0.30;99.90;;;;;;5054874;28;20176;-79
2021/11/30 05:10:13;;;;;;;0.63;0.63;;;0.30;99.90;;;;;;5054843;28;20112;-79
2021/11/30 05:12:40;;;;;;;1.20;0.30;;;0.30;99.90;;;;;;5054924;28;20100;-79
2021/11/30 05:15:07;;;;;;;0.35;0.35;;;0.30;99.90;;;;;;5054761;28;20029;-79
2021/11/30 05:17:33;;;;;;;0.00;0.00;;;0.30;99.90;;;;;;5054610;28;20043;-79
2021/11/30 05:19:59;;;;;;;1.55;1.45;;;0.20;99.90;;;;;;5054645;28;20029;-79
2021/11/30 05:22:25;;;;;;;3.75;1.98;;;0.30;99.90;;;;;;5054829;28;20064;-77
2021/11/30 05:24:51;;;;;;;0.20;0.20;;;0.30;99.90;;;;;;5053422;28;20115;-78
2021/11/30 05:27:17;;;;;;;0.00;0.00;;;0.30;99.90;;;;;;5053201;28;20564;-77
2021/11/30 05:29:43;;;;;;;0.30;0.30;;;0.20;99.90;;;;;;5054502;28;20103;-77
2021/11/30 05:32:08;;;;;;;1.98;1.15;;;0.20;99.90;;;;;;5054482;28;20025;-77
2021/11/30 05:34:34;;;;;;;1.45;0.73;;;0.20;99.90;;;;;;5054158;28;20079;-78
2021/11/30 05:36:59;;;;;;;0.20;0.20;;;0.20;99.90;;;;;;5054552;28;20028;-77
2021/11/30 05:39:25;;;;;;;0.65;0.45;;;0.10;99.90;;;;;;5054214;28;20017;-78
2021/11/30 05:41:54;;;;;;;0.85;0.85;;;0.20;99.90;;;;;;5053629;28;20104;-78
2021/11/30 05:44:19;;;;;;;1.10;1.05;;;0.10;99.90;;;;;;5055045;28;20021;-77
2021/11/30 05:46:46;;;;;;;2.72;0.30;;;0.20;99.90;;;;;;5054671;28;20021;-77
2021/11/30 05:49:13;;;;;;;0.38;0.38;;;0.10;99.90;;;;;;5053889;28;20063;-77
2021/11/30 05:51:39;;;;;;;0.10;0.10;;;0.10;99.90;;;;;;5053433;28;20082;-77
2021/11/30 05:54:05;;;;;;;0.32;0.32;;;0.20;99.90;;;;;;5053960;28;20029;-78
2021/11/30 05:56:30;;;;;;;0.10;0.10;;;0.10;99.90;;;;;;5054066;28;20032;-78
2021/11/30 05:58:57;;;;;;;0.22;0.22;;;0.20;99.90;;;;;;5049176;28;20109;-79
2021/11/30 06:01:29;;;;;;;0.00;0.00;;;0.20;99.90;;;;;;5052087;28;20363;-79
2021/11/30 06:04:01;;;;;;;1.88;1.38;;;0.20;99.90;;;;;;5052992;28;20029;-79
2021/11/30 06:06:29;;;;;;;1.10;1.10;;;0.20;99.90;;;;;;5053585;28;20072;-84
2021/11/30 06:08:57;;;;;;;0.47;0.47;;;0.20;99.90;;;;;;5052934;28;20029;-79
2021/11/30 06:11:23;;;;;;;0.00;0.00;;;0.20;99.90;;;;;;5053430;28;20036;-79
2021/11/30 06:13:49;;;;;;;1.40;1.00;;;0.20;99.90;;;;;;5052865;28;20540;-80
2021/11/30 06:16:15;;;;;;;0.10;0.10;;;0.20;99.90;;;;;;5053390;28;20104;-79
2021/11/30 06:18:41;;;;;;;0.38;0.32;;;0.20;99.90;;;;;;5052193;28;20093;-79
2021/11/30 06:21:07;;;;;;;0.17;0.17;;;0.20;99.90;;;;;;5051967;28;20029;-78
2021/11/30 06:23:32;;;;;;;5.43;2.42;;;0.20;99.90;;;;;;5052808;28;20059;-79
2021/11/30 06:25:58;;;;;;;0.28;0.28;;;0.20;99.90;;;;;;5052005;28;20053;-79
2021/11/30 06:28:24;;;;;;;0.20;0.20;;;0.20;99.90;;;;;;5053121;28;20028;-79
2021/11/30 06:30:51;;;;;;;2.28;0.63;;;0.20;99.90;;;;;;5053180;28;20037;-79
2021/11/30 06:33:17;;;;;;;0.00;0.00;;;0.20;99.90;;;;;;5052615;28;20013;-80
2021/11/30 06:35:43;;;;;;;1.80;1.27;;;0.20;99.90;;;;;;5052860;28;20031;-80
2021/11/30 06:38:08;;;;;;;1.20;1.10;;;0.20;99.90;;;;;;5053153;28;20067;-81
2021/11/30 06:40:34;;;;;;;0.00;0.00;;;0.20;99.90;;;;;;5052901;28;20033;-81
2021/11/30 06:43:00;;;;;;;0.55;0.47;;;0.20;99.90;;;;;;5052645;28;20036;-81
2021/11/30 06:45:26;;;;;;;0.77;0.77;;;0.20;99.90;;;;;;5052773;28;20060;-81
2021/11/30 06:47:51;;;;;;;0.20;0.17;;;0.20;99.90;;;;;;5052489;28;20100;-80
2021/11/30 06:50:17;;;;;;;2.15;1.25;;;0.30;99.90;;;;;;5052592;28;20029;-81
2021/11/30 06:52:43;;;;;;;0.95;0.68;;;0.20;99.90;;;;;;5052429;28;20025;-81
2021/11/30 06:55:10;;;;;;;0.52;0.52;;;0.20;99.90;;;;;;5052788;28;20396;-81
2021/11/30 06:57:36;;;;;;;0.43;0.22;;;0.30;99.90;;;;;;5052507;28;20025;-81
2021/11/30 07:00:05;;;;;;;0.57;0.57;;;0.30;99.90;;;;;;5051852;28;20078;-80
2021/11/30 07:02:31;;;;;;;0.38;0.38;;;0.30;99.90;;;;;;5052313;28;20024;-81
2021/11/30 07:04:59;;;;;;;1.65;1.23;;;0.30;99.90;;;;;;5052139;28;20032;-81
2021/11/30 07:10:35;;;;;;;1.17;0.93;;;0.30;99.90;;;;;;5052427;28;20071;-81
2021/11/30 07:15:09;;;;;;;1.45;0.65;;;0.40;99.90;;;;;;5051861;28;20025;-81
2021/11/30 07:17:35;;;;;;;0.80;0.80;;;0.50;99.90;;;;;;5052255;28;20368;-80
2021/11/30 07:20:02;;;;;;;0.25;0.22;;;0.60;99.90;;;;;;5051874;28;20040;-80
2021/11/30 07:22:28;;;;;;;0.03;0.03;;;0.70;99.90;;;;;;5052606;28;20053;-82
2021/11/30 07:24:54;;;;;;;0.10;0.10;;;0.60;99.90;;;;;;5051602;28;20060;-82
2021/11/30 07:27:20;;;;;;;0.03;0.03;;;0.70;99.90;;;;;;5051175;28;20022;-82
2021/11/30 07:29:45;;;;;;;0.22;0.22;;;0.70;99.90;;;;;;5052133;28;20032;-82
2021/11/30 07:32:11;;;;;;;0.70;0.70;;;0.70;99.90;;;;;;5052088;28;20040;-82
2021/11/30 07:34:37;;;;;;;1.25;0.75;;;0.70;99.90;;;;;;5051420;28;20036;-83
2021/11/30 07:37:04;;;;;;;0.88;0.65;;;0.70;99.90;;;;;;5050483;28;20032;-82
2021/11/30 07:39:30;;;;;;;0.13;0.13;;;0.70;99.90;;;;;;5052606;28;20392;-82
2021/11/30 07:41:56;;;;;;;1.65;1.15;;;0.80;99.90;;;;;;5052083;28;20483;-82
2021/11/30 07:44:22;;;;;;;1.73;0.70;;;0.80;99.90;;;;;;5051972;28;20025;-82
2021/11/30 07:46:47;;;;;;;0.00;0.00;;;0.80;99.90;;;;;;5052078;28;20147;-82
2021/11/30 07:49:13;;;;;;;0.57;0.50;;;0.80;99.90;;;;;;5051507;28;20108;-82
2021/11/30 07:51:40;;;;;;;0.43;0.43;;;0.80;99.90;;;;;;5051923;28;20036;-82
2021/11/30 07:54:06;;;;;;;1.63;0.40;;;0.90;99.90;;;;;;5051617;28;20495;-82
2021/11/30 07:56:32;;;;;;;0.38;0.38;;;0.90;99.90;;;;;;5051881;28;20029;-82
2021/11/30 07:58:59;;;;;;;1.00;0.82;;;0.90;99.90;;;;;;5051554;28;20025;-82
2021/11/30 08:01:25;;;;;;;0.00;0.00;;;0.90;99.90;;;;;;5049893;28;20025;-82
2021/11/30 08:03:51;;;;;;;0.60;0.35;;;1.00;99.90;;;;;;5051007;28;20385;-81
2021/11/30 08:06:16;;;;;;;0.00;0.00;;;1.00;99.90;;;;;;5051675;28;20377;-82
2021/11/30 08:08:42;;;;;;;0.00;0.00;;;1.00;99.90;;;;;;5051890;28;20021;-86
2021/11/30 08:11:08;;;;;;;0.05;0.05;;;1.00;99.90;;;;;;5046937;28;20177;-84
2021/11/30 08:13:35;;;;;;;2.15;0.90;;;1.10;99.90;;;;;;5050587;28;20033;-83
2021/11/30 08:16:01;;;;;;;1.08;1.08;;;1.10;99.90;;;;;;5051262;28;20029;-83
2021/11/30 08:18:27;;;;;;;0.82;0.63;;;1.10;99.90;;;;;;5049523;28;20032;-81
2021/11/30 08:20:53;;;;;;;0.10;0.10;;;1.10;99.90;;;;;;5051873;28;20036;-82
2021/11/30 08:23:18;;;;;;;0.10;0.10;;;1.20;99.90;;;;;;5051641;28;20488;-83
2021/11/30 08:25:44;;;;;;;0.45;0.45;;;1.20;99.90;;;;;;5054974;28;20119;-82
2021/11/30 08:28:10;;;;;;;1.00;0.70;;;1.20;99.90;;;;;;5053888;28;20395;-83
2021/11/30 08:30:35;;;;;;;0.05;0.05;;;1.20;99.90;;;;;;5055040;28;20056;-85
2021/11/30 08:33:01;;;;;;;0.00;0.00;;;1.20;99.90;;;;;;5054177;28;20025;-84
2021/11/30 08:35:27;;;;;;;0.47;0.47;;;1.30;99.90;;;;;;5055039;28;20036;-83
2021/11/30 08:37:53;;;;;;;0.45;0.35;;;1.30;99.90;;;;;;5055896;28;20025;-83
2021/11/30 08:40:19;;;;;;;2.30;1.30;;;1.40;99.90;;;;;;5055184;28;20033;-81
2021/11/30 08:42:44;;;;;;;0.38;0.38;;;1.50;99.90;;;;;;5054937;28;20033;-82
2021/11/30 08:45:11;;;;;;;0.52;0.52;;;1.50;99.90;;;;;;5053379;28;20115;-83
2021/11/30 08:47:37;;;;;;;1.35;1.25;;;1.50;99.90;;;;;;5054551;28;20025;-85
2021/11/30 08:50:08;;;;;;;0.77;0.77;;;1.60;99.90;;;;;;5054553;28;20468;-84
2021/11/30 08:52:34;;;;;;;0.20;0.20;;;1.70;99.90;;;;;;5054823;28;20053;-84
2021/11/30 08:55:00;;;;;;;4.43;3.08;;;1.70;99.90;;;;;;5054906;28;20063;-81
2021/11/30 08:57:28;;;;;;;0.00;0.00;;;1.80;99.90;;;;;;5054365;28;20025;-83
2021/11/30 08:59:55;;;;;;;0.50;0.50;;;1.90;99.90;;;;;;5053806;28;20040;-82
2021/11/30 09:02:21;;;;;;;0.65;0.65;;;1.90;99.90;;;;;;5054345;28;20041;-82
2021/11/30 09:04:47;;;;;;;0.00;0.00;;;2.00;99.90;;;;;;5054384;28;20446;-83
2021/11/30 09:07:15;;;;;;;0.20;0.20;;;2.00;99.90;;;;;;5057217;28;20568;-84
2021/11/30 09:09:42;;;;;;;2.72;1.27;;;2.10;99.90;;;;;;5060526;28;20102;-84
2021/11/30 09:12:09;;;;;;;1.17;0.98;;;2.10;99.90;;;;;;5055763;28;20017;-88
2021/11/30 09:14:35;;;;;;;0.88;0.88;;;2.20;99.90;;;;;;5054401;28;20033;-85
2021/11/30 09:17:01;;;;;;;0.95;0.63;;;2.30;99.90;;;;;;5053808;28;20032;-85
2021/11/30 09:19:27;;;;;;;1.10;0.38;;;2.30;99.90;;;;;;5053377;28;20040;-86
2021/11/30 09:21:53;;;;;;;0.22;0.22;;;2.30;99.90;;;;;;5054098;28;20396;-84
2021/11/30 09:24:19;;;;;;;0.68;0.68;;;2.40;99.90;;;;;;5052233;28;20091;-82
2021/11/30 09:26:45;;;;;;;0.20;0.20;;;2.50;99.90;;;;;;5052608;28;20107;-84
2021/11/30 09:29:12;;;;;;;0.00;0.00;;;2.60;99.90;;;;;;5055532;28;20397;-85
2021/11/30 09:31:38;;;;;;;1.05;0.68;;;2.50;99.90;;;;;;5055128;28;20543;-83
2021/11/30 09:34:04;;;;;;;2.72;1.17;;;2.50;99.90;;;;;;5054495;28;20025;-83
2021/11/30 09:36:32;;;;;;;1.08;1.08;;;2.70;99.90;;;;;;5054463;28;20020;-86
2021/11/30 09:39:03;;;;;;;1.75;1.13;;;2.90;99.90;;;;;;5053938;28;20113;-86
2021/11/30 09:41:29;;;;;;;0.30;0.30;;;3.00;99.90;;;;;;5053826;28;20067;-83
2021/11/30 09:43:55;;;;;;;1.02;1.02;;;3.10;99.90;;;;;;5053203;28;20063;-81
2021/11/30 09:46:21;;;;;;;0.20;0.20;;;3.20;99.90;;;;;;5053507;28;20056;-81
2021/11/30 09:48:47;;;;;;;0.20;0.20;;;3.30;99.90;;;;;;5053000;28;20141;-81
2021/11/30 09:51:13;;;;;;;1.30;1.20;;;3.40;99.90;;;;;;5053519;28;20644;-80
2021/11/30 09:53:38;;;;;;;0.32;0.32;;;3.40;99.90;;;;;;5053550;28;20469;-79
2021/11/30 09:56:04;;;;;;;0.20;0.20;;;3.50;99.90;;;;;;5053365;28;20037;-79
2021/11/30 09:58:30;;;;;;;0.15;0.15;;;3.70;99.90;;;;;;5052876;28;20027;-80
2021/11/30 10:00:59;;;;;;;0.43;0.25;;;3.90;99.90;;;;;;5050700;28;20032;-79
2021/11/30 10:03:25;;;;;;;0.73;0.73;;;4.10;99.90;;;;;;5052358;28;20089;-79
2021/11/30 10:05:54;;;;;;;0.13;0.13;;;4.30;99.90;;;;;;5052850;28;20163;-80
2021/11/30 10:08:39;;;;;;;0.22;0.22;;;4.60;99.90;;;;;;5052078;28;20028;-78
2021/11/30 10:11:08;;;;;;;0.20;0.20;;;4.80;99.90;;;;;;5050258;28;20496;-79
2021/11/30 10:13:34;;;;;;;0.47;0.40;;;5.00;99.90;;;;;;5051665;28;20024;-80
2021/11/30 10:16:07;;;;;;;2.45;0.95;;;5.20;99.90;;;;;;5052086;28;20048;-79
2021/11/30 10:18:42;;;;;;;0.80;0.80;;;5.40;99.90;;;;;;5041302;28;20078;-82
2021/11/30 10:21:24;;;;;;;0.85;0.85;;;5.60;99.90;;;;;;5047421;28;20078;-79
2021/11/30 10:23:51;;;;;;;0.55;0.55;;;5.60;99.90;;;;;;5042877;28;20032;-82
2021/11/30 10:26:20;;;;;;;0.10;0.10;;;5.70;99.90;;;;;;5044154;28;20052;-80
2021/11/30 10:28:53;;;;;;;0.70;0.52;;;5.80;99.90;;;;;;5048943;28;20036;-81
2021/11/30 10:31:23;;;;;;;1.80;0.65;;;5.70;99.90;;;;;;5048840;28;20056;-84
2021/11/30 10:33:51;;;;;;;0.98;0.90;;;5.70;99.90;;;;;;5051963;28;20088;-81
2021/11/30 10:36:18;;;;;;;0.52;0.52;;;5.70;99.90;;;;;;5044164;28;20476;-82
2021/11/30 10:38:43;;;;;;;0.38;0.38;;;5.70;99.90;;;;;;5051000;28;20147;-80
2021/11/30 10:41:21;;;;;;;0.57;0.57;;;6.00;99.90;;;;;;5051025;28;20116;-80
2021/11/30 10:43:51;;;;;;;1.58;1.05;;;6.20;99.90;;;;;;5051843;28;20449;-80
2021/11/30 10:46:29;;;;;;;2.10;1.10;;;6.70;99.90;;;;;;5051805;28;20181;-81
2021/11/30 10:48:56;;;;;;;0.00;0.00;;;6.90;99.90;;;;;;5051435;28;20483;-82
2021/11/30 10:51:23;;;;;;;0.45;0.45;;;7.10;99.90;;;;;;5051777;28;20079;-82
2021/11/30 10:53:54;;;;;;;0.10;0.10;;;7.20;99.90;;;;;;5052364;28;20426;-80
2021/11/30 10:56:20;;;;;;;0.25;0.25;;;7.20;99.90;;;;;;5049800;28;20028;-78
2021/11/30 10:58:47;;;;;;;5.47;1.85;;;7.20;99.90;;;;;;5051283;28;20033;-82
2021/11/30 11:01:17;;;;;;;0.10;0.10;;;7.20;99.90;;;;;;5051069;28;20519;-81
2021/11/30 11:03:43;;;;;;;0.10;0.10;;;7.30;99.90;;;;;;5051181;28;20039;-81
2021/11/30 11:08:56;;;;;;;0.17;0.17;;;7.30;99.90;;;;;;5055401;28;20031;-79
2021/11/30 11:11:27;;;;;;;0.63;0.63;;;7.40;99.90;;;;;;5063124;28;20039;-79
2021/11/30 11:13:54;;;;;;;0.30;0.30;;;7.40;99.90;;;;;;5052203;28;20031;-82
2021/11/30 11:16:35;;;;;;;0.20;0.20;;;7.30;99.90;;;;;;5044073;28;20100;-79
2021/11/30 11:19:04;;;;;;;4.53;1.15;;;7.30;99.90;;;;;;5047828;28;20048;-79
2021/11/30 11:21:37;;;;;;;3.05;1.70;;;7.30;99.90;;;;;;5051839;28;20067;-80
2021/11/30 11:24:10;;;;;;;0.00;0.00;;;7.30;99.90;;;;;;5049485;28;20056;-82
2021/11/30 11:26:36;;;;;;;0.95;0.32;;;7.40;99.90;;;;;;5051626;28;20056;-81
2021/11/30 11:29:07;;;;;;;0.03;0.03;;;7.30;99.90;;;;;;5050111;28;20116;-80
2021/11/30 11:31:34;;;;;;;0.40;0.05;;;7.40;99.90;;;;;;5050817;28;20021;-80
2021/11/30 11:34:02;;;;;;;0.00;0.00;;;7.40;99.90;;;;;;5051088;28;20051;-79
2021/11/30 11:36:28;;;;;;;0.20;0.20;;;7.50;99.90;;;;;;5043460;28;20037;-80
2021/11/30 11:38:54;;;;;;;0.55;0.55;;;7.50;99.90;;;;;;5051234;28;20060;-80
2021/11/30 11:41:20;;;;;;;0.47;0.47;;;7.60;99.90;;;;;;5050610;28;20381;-80
2021/11/30 11:43:46;;;;;;;1.48;0.98;;;7.70;99.90;;;;;;5051055;28;20040;-79
2021/11/30 11:46:15;;;;;;;2.10;1.13;;;7.60;99.90;;;;;;5051482;28;20036;-79
2021/11/30 11:48:42;;;;;;;0.52;0.30;;;7.70;99.90;;;;;;5051015;28;20112;-79
2021/11/30 11:51:10;;;;;;;1.67;0.65;;;7.80;99.90;;;;;;5051234;28;20029;-78
2021/11/30 11:53:50;;;;;;;0.80;0.60;;;7.90;99.90;;;;;;5050321;28;20028;-79
2021/11/30 11:56:26;;;;;;;4.28;2.10;;;8.00;99.90;;;;;;5050759;28;20539;-79
2021/11/30 11:59:07;;;;;;;0.17;0.17;;;8.10;99.90;;;;;;5051507;28;20430;-79
2021/11/30 12:01:32;;;;;;;0.77;0.75;;;8.20;99.90;;;;;;5050382;28;20422;-77
2021/11/30 12:04:09;;;;;;;0.80;0.80;;;8.30;99.90;;;;;;5051717;28;20111;-80
2021/11/30 12:06:50;;;;;;;0.15;0.15;;;8.40;99.90;;;;;;5054354;28;20459;-78
2021/11/30 12:09:25;;;;;;;0.10;0.10;;;8.30;99.90;;;;;;5054564;28;20025;-79
2021/11/30 12:11:55;;;;;;;0.65;0.65;;;8.30;99.90;;;;;;5053103;28;20448;-78
2021/11/30 12:14:35;;;;;;;0.50;0.50;;;8.20;99.90;;;;;;5055211;28;20029;-79
2021/11/30 12:17:16;;;;;;;2.25;0.90;;;8.20;99.90;;;;;;5054582;28;20407;-78
2021/11/30 12:19:48;;;;;;;0.13;0.13;;;8.20;99.90;;;;;;5054815;28;20479;-77
2021/11/30 12:22:53;;;;;;;0.70;0.70;;;8.30;99.90;;;;;;5054530;28;20029;-79
2021/11/30 12:25:40;;;;;;;0.65;0.40;;;8.60;99.90;;;;;;5049965;28;20052;-80
2021/11/30 12:28:09;;;;;;;0.60;0.55;;;8.80;99.90;;;;;;5054568;28;20408;-79
2021/11/30 12:30:54;;;;;;;0.10;0.10;;;9.00;99.90;;;;;;5049119;28;20029;-80
2021/11/30 12:33:24;;;;;;;0.40;0.40;;;9.10;99.90;;;;;;5054059;28;20102;-80
2021/11/30 12:36:02;;;;;;;0.52;0.30;;;9.10;99.90;;;;;;5054535;28;20032;-80
2021/11/30 12:38:35;;;;;;;0.20;0.20;;;9.20;99.90;;;;;;5054307;28;20052;-80
2021/11/30 12:41:23;;;;;;;0.22;0.22;;;9.10;99.90;;;;;;5053395;28;20112;-86
2021/11/30 12:43:54;;;;;;;0.30;0.30;;;9.20;99.90;;;;;;5054131;28;20062;-82
2021/11/30 12:46:42;;;;;;;0.17;0.15;;;9.30;99.90;;;;;;5053786;28;20112;-81
2021/11/30 12:49:25;;;;;;;6.13;1.75;;;9.30;99.90;;;;;;5050368;28;20032;-81
2021/11/30 12:52:06;;;;;;;;;;;9.10;99.90;;;;;;5048916;28;20086;-80
2021/11/30 12:54:35;;;;;;;0.63;0.63;;;9.10;99.90;;;;;;5053393;28;19955;-82
2021/11/30 12:57:01;;;;;;;0.05;0.05;;;9.00;99.90;;;;;;5054833;28;20044;-83
2021/11/30 12:59:39;;;;;;;0.73;0.73;;;9.10;99.90;;;;;;5053755;28;20420;-82
2021/11/30 13:02:25;;;;;;;0.50;0.50;;;9.10;99.90;;;;;;5057787;28;20079;-83
2021/11/30 13:05:11;;;;;;;0.40;0.35;;;9.10;99.90;;;;;;5071862;28;20102;-82
2021/11/30 13:07:49;;;;;;;0.10;0.10;;;9.10;99.90;;;;;;5055871;28;20056;-84
2021/11/30 13:10:37;;;;;;;1.45;1.35;;;9.10;99.90;;;;;;5069547;28;20056;-80
2021/11/30 13:13:20;;;;;;;0.32;0.32;;;9.10;99.90;;;;;;5034749;28;20388;-80
2021/11/30 13:16:02;;;;;;;1.63;1.05;;;9.10;99.90;;;;;;5035510;28;20146;-81
2021/11/30 13:18:36;;;;;;;0.05;0.05;;;9.20;99.90;;;;;;5049827;28;21498;-82
2021/11/30 13:21:06;;;;;;;0.17;0.17;;;9.30;99.90;;;;;;5054309;28;20037;-81